This is the latest recevied weather packets stored in our database for station/object K0QJ. If no packets are shown the sender has not sent any weather packets the latest 10 day(s).
| Time | Temp. | Humidity | Pressure | Rain* | Wind** | Luminosity | Snow |
|---|---|---|---|---|---|---|---|
| 1777317225 | 23.89° C | 69% | 1001.6 hPa | 0 mm | - | 645 W/m² | - |
| 1777316921 | 23.89° C | 69% | 1001.4 hPa | 0 mm | - | 728 W/m² | - |
| 1777316618 | 23.33° C | 71% | 1001.3 hPa | 0 mm | - | 736 W/m² | - |
| 1777316315 | 24.44° C | 69% | 1001.3 hPa | 0 mm | - | 204 W/m² | - |
| 1777316012 | 25.56° C | 69% | 1001.4 hPa | 0 mm | - | 293 W/m² | - |
| 1777315712 | 25° C | 69% | 1001.3 hPa | 0 mm | - | 723 W/m² | - |
| 1777315408 | 25° C | 69% | 1001.2 hPa | 0 mm | - | 717 W/m² | - |
| 1777315106 | 25° C | 70% | 1001.3 hPa | 0 mm | - | 779 W/m² | - |
| 1777314801 | 24.44° C | 71% | 1001.4 hPa | 0 mm | - | 822 W/m² | - |
| 1777314499 | 24.44° C | 71% | 1001.3 hPa | 0 mm | - | 891 W/m² | - |
| 1777314195 | 23.89° C | 73% | 1001.2 hPa | 0 mm | - | 857 W/m² | - |
| 1777313894 | 23.33° C | 75% | 1001.2 hPa | 0 mm | - | 434 W/m² | - |
| 1777313590 | 23.89° C | 75% | 1001.1 hPa | 0 mm | - | 850 W/m² | - |
| 1777313288 | 24.44° C | 72% | 1000.9 hPa | 0 mm | - | 965 W/m² | - |
| 1777312984 | 23.89° C | 72% | 1000.6 hPa | 0 mm | - | 452 W/m² | - |
| 1777312680 | 25° C | 68% | 1000.6 hPa | 0 mm | - | 199 W/m² | - |
| 1777312377 | 26.11° C | 67% | 1000.5 hPa | 0 mm | - | 514 W/m² | - |
| 1777312074 | 25.56° C | 67% | 1000.5 hPa | 0 mm | - | 861 W/m² | - |
| 1777311771 | 26.11° C | 65% | 1000.3 hPa | 0 mm | - | 321 W/m² | - |
| 1777311469 | 25.56° C | 66% | 1000.3 hPa | 0 mm | - | 794 W/m² | - |
| 1777311165 | 25.56° C | 67% | 1000.1 hPa | 0 mm | - | 776 W/m² | - |
| 1777310864 | 25° C | 66% | 1000.2 hPa | 0 mm | - | 832 W/m² | - |
| 1777310561 | 25° C | 69% | 1000.2 hPa | 0 mm | - | 505 W/m² | - |
| 1777310258 | 24.44° C | 69% | 999.9 hPa | 0 mm | - | 809 W/m² | - |
| 1777309955 | 24.44° C | 71% | 999.9 hPa | 0 mm | - | 807 W/m² | - |
* Rain latest hour (hover to see other rain measurements)
** Current wind speed in m/s (hover to see current wind gust speed)